createdAt,value
2022-11-01T00:00:26.009Z,989.34
2022-11-01T00:01:25.989Z,989.34
2022-11-01T00:02:25.966Z,989.31
2022-11-01T00:03:25.935Z,989.38
2022-11-01T00:04:25.941Z,989.32
2022-11-01T00:05:25.920Z,989.26
2022-11-01T00:06:25.946Z,989.26
2022-11-01T00:07:25.899Z,989.31
2022-11-01T00:08:25.918Z,989.28
2022-11-01T00:09:25.895Z,989.16
2022-11-01T00:10:25.909Z,989.18
2022-11-01T00:11:25.900Z,989.31
2022-11-01T00:12:25.877Z,989.32
2022-11-01T00:13:25.888Z,989.35
2022-11-01T00:14:25.861Z,989.34
2022-11-01T00:15:25.860Z,989.35
2022-11-01T00:16:25.849Z,989.39
2022-11-01T00:17:25.951Z,989.40
2022-11-01T00:18:25.848Z,989.37
2022-11-01T00:19:25.841Z,989.28
2022-11-01T00:20:25.820Z,989.17
2022-11-01T00:21:25.808Z,989.15
2022-11-01T00:22:25.852Z,989.14
2022-11-01T00:23:25.818Z,989.17
2022-11-01T00:24:25.813Z,989.20
2022-11-01T00:25:25.802Z,989.16
2022-11-01T00:26:25.800Z,989.16
2022-11-01T00:27:25.788Z,989.15
2022-11-01T00:28:25.894Z,989.17
2022-11-01T00:29:25.764Z,989.19
2022-11-01T00:30:25.771Z,989.28
2022-11-01T00:31:25.766Z,989.17
2022-11-01T00:32:25.761Z,989.27
2022-11-01T00:33:25.851Z,989.26
2022-11-01T00:34:25.751Z,989.25
2022-11-01T00:35:25.735Z,989.22
2022-11-01T00:36:25.733Z,989.20
2022-11-01T00:37:25.701Z,989.18
2022-11-01T00:38:25.726Z,989.14
2022-11-01T00:39:30.384Z,989.23
2022-11-01T00:40:27.715Z,989.30
2022-11-01T00:41:25.710Z,989.21
2022-11-01T00:42:25.700Z,989.26
2022-11-01T00:43:25.693Z,989.25
2022-11-01T00:44:25.790Z,989.21
2022-11-01T00:45:25.653Z,989.21
2022-11-01T00:46:25.675Z,989.19
2022-11-01T00:47:25.665Z,989.28
2022-11-01T00:48:25.651Z,989.21
2022-11-01T00:49:25.635Z,989.17
2022-11-01T00:50:25.677Z,989.20
2022-11-01T00:51:25.640Z,989.09
2022-11-01T00:52:25.629Z,989.20
2022-11-01T00:53:25.620Z,989.20
2022-11-01T00:54:25.625Z,989.13
2022-11-01T00:55:25.714Z,989.11
2022-11-01T00:56:25.604Z,989.05
2022-11-01T00:57:25.611Z,989.09
2022-11-01T00:58:25.589Z,989.07
2022-11-01T00:59:25.583Z,989.09
2022-11-01T01:00:25.594Z,989.13
2022-11-01T01:01:25.704Z,989.06
2022-11-01T01:02:25.691Z,988.99
2022-11-01T01:03:25.564Z,989.04
2022-11-01T01:04:25.582Z,989.03
2022-11-01T01:05:25.549Z,989.03
2022-11-01T01:06:25.654Z,988.95
2022-11-01T01:07:25.543Z,988.95
2022-11-01T01:08:25.535Z,988.94
2022-11-01T01:09:25.516Z,989.00
2022-11-01T01:10:25.516Z,988.95
2022-11-01T01:11:25.512Z,988.97
2022-11-01T01:12:25.544Z,988.91
2022-11-01T01:13:25.491Z,988.96
2022-11-01T01:14:29.890Z,988.92
2022-11-01T01:15:27.479Z,988.93
2022-11-01T01:16:25.486Z,988.95
2022-11-01T01:17:27.620Z,988.97
2022-11-01T01:18:25.472Z,988.97
2022-11-01T01:19:25.467Z,988.93
2022-11-01T01:20:25.451Z,988.95
2022-11-01T01:21:25.447Z,988.92
2022-11-01T01:22:25.440Z,988.92
2022-11-01T01:23:25.471Z,988.98
2022-11-01T01:24:25.435Z,988.92
2022-11-01T01:25:25.421Z,988.91
2022-11-01T01:26:25.430Z,988.91
2022-11-01T01:27:25.424Z,988.92
2022-11-01T01:28:25.525Z,988.85
2022-11-01T01:29:25.411Z,988.92
2022-11-01T01:30:25.389Z,988.84
2022-11-01T01:31:25.392Z,988.85
2022-11-01T01:32:25.389Z,988.72
2022-11-01T01:33:25.357Z,988.71
2022-11-01T01:34:25.397Z,988.76
2022-11-01T01:35:25.364Z,988.77
2022-11-01T01:36:25.363Z,988.72
2022-11-01T01:37:25.357Z,988.73
2022-11-01T01:38:25.336Z,988.76
2022-11-01T01:39:25.467Z,988.75
2022-11-01T01:40:25.321Z,988.73
2022-11-01T01:41:25.307Z,988.72
2022-11-01T01:42:25.334Z,988.81
2022-11-01T01:43:25.317Z,988.77
2022-11-01T01:44:25.324Z,988.78
2022-11-01T01:45:25.413Z,988.76
2022-11-01T01:46:25.290Z,988.78
2022-11-01T01:47:25.279Z,988.82
2022-11-01T01:48:25.267Z,988.75
2022-11-01T01:49:25.279Z,988.71
2022-11-01T01:50:25.279Z,988.68
2022-11-01T01:51:25.274Z,988.66
2022-11-01T01:52:25.269Z,988.76
2022-11-01T01:53:25.239Z,988.74
2022-11-01T01:54:25.258Z,988.73
2022-11-01T01:55:25.253Z,988.78
2022-11-01T01:56:25.353Z,988.67
2022-11-01T01:57:25.221Z,988.73
2022-11-01T01:58:25.224Z,988.69
2022-11-01T01:59:25.209Z,988.72
2022-11-01T02:00:25.202Z,988.75
2022-11-01T02:01:25.347Z,988.70
2022-11-01T02:02:25.280Z,988.71
2022-11-01T02:03:25.212Z,988.69
2022-11-01T02:04:25.213Z,988.66
2022-11-01T02:05:25.176Z,988.67
2022-11-01T02:06:25.200Z,988.67
2022-11-01T02:07:25.292Z,988.67
2022-11-01T02:08:25.152Z,988.64
2022-11-01T02:09:28.177Z,988.70
2022-11-01T02:10:26.148Z,988.66
2022-11-01T02:11:25.183Z,988.70
2022-11-01T02:12:25.261Z,988.63
2022-11-01T02:13:25.126Z,988.62
2022-11-01T02:14:26.132Z,988.57
2022-11-01T02:15:25.109Z,988.54
2022-11-01T02:16:25.104Z,988.53
2022-11-01T02:17:25.102Z,988.57
2022-11-01T02:18:25.102Z,988.58
2022-11-01T02:19:25.080Z,988.65
2022-11-01T02:20:25.084Z,988.61
2022-11-01T02:21:25.073Z,988.58
2022-11-01T02:22:25.072Z,988.60
2022-11-01T02:23:25.096Z,988.62
2022-11-01T02:24:25.050Z,988.60
2022-11-01T02:25:25.035Z,988.57
2022-11-01T02:26:25.042Z,988.56
2022-11-01T02:27:25.040Z,988.63
2022-11-01T02:28:25.031Z,988.56
2022-11-01T02:29:25.140Z,988.60
2022-11-01T02:30:25.019Z,988.53
2022-11-01T02:31:24.999Z,988.57
2022-11-01T02:32:25.020Z,988.54
2022-11-01T02:33:25.001Z,988.53
2022-11-01T02:34:25.016Z,988.61
2022-11-01T02:35:24.991Z,988.52
2022-11-01T02:36:24.986Z,988.52
2022-11-01T02:37:24.983Z,988.51
2022-11-01T02:38:24.973Z,988.58
2022-11-01T02:39:24.973Z,988.54
2022-11-01T02:40:25.256Z,988.52
2022-11-01T02:41:24.965Z,988.44
2022-11-01T02:42:24.952Z,988.38
2022-11-01T02:43:24.943Z,988.36
2022-11-01T02:44:24.927Z,988.43
2022-11-01T02:45:24.958Z,988.38
2022-11-01T02:46:24.918Z,988.36
2022-11-01T02:47:24.913Z,988.33
2022-11-01T02:48:24.919Z,988.30
2022-11-01T02:49:24.891Z,988.30
2022-11-01T02:50:24.894Z,988.28
2022-11-01T02:51:24.991Z,988.26
2022-11-01T02:52:24.895Z,988.28
2022-11-01T02:53:24.852Z,988.26
2022-11-01T02:54:24.862Z,988.22
2022-11-01T02:55:24.862Z,988.24
2022-11-01T02:56:24.884Z,988.20
2022-11-01T02:57:24.837Z,988.16
2022-11-01T02:58:24.838Z,988.12
2022-11-01T02:59:24.844Z,988.12
2022-11-01T03:00:24.827Z,988.11
2022-11-01T03:01:24.857Z,988.09
2022-11-01T03:02:24.852Z,988.08
2022-11-01T03:03:24.804Z,988.05
2022-11-01T03:04:24.796Z,988.09
2022-11-01T03:05:24.806Z,988.11
2022-11-01T03:06:24.791Z,988.06
2022-11-01T03:07:24.891Z,988.05
2022-11-01T03:08:24.794Z,987.88
2022-11-01T03:09:24.772Z,988.02
2022-11-01T03:10:24.759Z,987.94
2022-11-01T03:11:24.756Z,988.04
2022-11-01T03:12:24.783Z,988.04
2022-11-01T03:13:24.773Z,988.01
2022-11-01T03:14:24.735Z,988.02
2022-11-01T03:15:24.727Z,987.95
2022-11-01T03:16:24.724Z,988.04
2022-11-01T03:17:24.725Z,988.08
2022-11-01T03:18:24.728Z,988.03
2022-11-01T03:19:24.710Z,988.13
2022-11-01T03:20:24.718Z,988.20
2022-11-01T03:21:24.688Z,988.25
2022-11-01T03:22:24.679Z,988.23
2022-11-01T03:23:24.682Z,988.22
2022-11-01T03:24:24.715Z,988.22
2022-11-01T03:25:24.663Z,988.23
2022-11-01T03:26:24.663Z,988.27
2022-11-01T03:27:24.657Z,988.26
2022-11-01T03:28:24.662Z,988.30
2022-11-01T03:29:24.765Z,988.28
2022-11-01T03:30:24.640Z,988.39
2022-11-01T03:31:24.631Z,988.43
2022-11-01T03:32:24.629Z,988.42
2022-11-01T03:33:24.600Z,988.42
2022-11-01T03:34:24.619Z,988.50
2022-11-01T03:35:24.655Z,988.49
2022-11-01T03:36:24.594Z,988.54
2022-11-01T03:37:24.586Z,988.52
2022-11-01T03:38:24.583Z,988.50
2022-11-01T03:39:24.572Z,988.50
2022-11-01T03:40:24.599Z,988.48
2022-11-01T03:41:24.559Z,988.43
2022-11-01T03:42:24.567Z,988.39
2022-11-01T03:43:24.552Z,988.39
2022-11-01T03:44:24.550Z,988.42
2022-11-01T03:46:25.558Z,988.38
2022-11-01T03:47:24.530Z,988.40
2022-11-01T03:48:24.511Z,988.43
2022-11-01T03:49:24.507Z,988.48
2022-11-01T03:50:24.500Z,988.42
2022-11-01T03:51:24.516Z,988.40
2022-11-01T03:52:24.496Z,988.50
2022-11-01T03:53:24.486Z,988.51
2022-11-01T03:54:24.496Z,988.52
2022-11-01T03:55:24.478Z,988.51
2022-11-01T03:56:24.483Z,988.59
2022-11-01T03:57:24.470Z,988.59
2022-11-01T03:58:24.443Z,988.59
2022-11-01T03:59:24.448Z,988.64
2022-11-01T04:00:24.421Z,988.59
2022-11-01T04:01:24.655Z,988.59
2022-11-01T04:02:24.434Z,988.59
2022-11-01T04:03:24.424Z,988.65
2022-11-01T04:04:24.429Z,988.62
2022-11-01T04:05:24.404Z,988.66
2022-11-01T04:06:24.413Z,988.59
2022-11-01T04:07:24.415Z,988.63
2022-11-01T04:08:24.383Z,988.64
2022-11-01T04:09:24.387Z,988.64
2022-11-01T04:10:24.436Z,988.62
2022-11-01T04:11:24.382Z,988.61
2022-11-01T04:12:24.370Z,988.61
2022-11-01T04:13:24.365Z,988.62
2022-11-01T04:14:24.350Z,988.56
2022-11-01T04:15:24.362Z,988.57
2022-11-01T04:16:24.349Z,988.57
2022-11-01T04:17:24.344Z,988.65
2022-11-01T04:18:24.331Z,988.69
2022-11-01T04:19:24.321Z,988.72
2022-11-01T04:20:24.299Z,988.62
2022-11-01T04:21:24.323Z,988.65
2022-11-01T04:22:24.742Z,988.65
2022-11-01T04:23:24.301Z,988.69
2022-11-01T04:24:24.290Z,988.68
2022-11-01T04:25:24.277Z,988.78
2022-11-01T04:26:24.297Z,988.73
2022-11-01T04:27:24.303Z,988.80
2022-11-01T04:28:24.260Z,988.78
2022-11-01T04:29:24.271Z,988.76
2022-11-01T04:30:24.258Z,988.82
2022-11-01T04:31:24.268Z,988.88
2022-11-01T04:32:24.252Z,988.87
2022-11-01T04:33:24.228Z,988.78
2022-11-01T04:34:24.247Z,988.87
2022-11-01T04:35:24.213Z,988.90
2022-11-01T04:36:24.252Z,988.93
2022-11-01T04:37:24.245Z,988.94
2022-11-01T04:38:24.210Z,988.95
2022-11-01T04:39:24.194Z,989.01
2022-11-01T04:40:24.184Z,988.94
2022-11-01T04:41:24.195Z,988.99
2022-11-01T04:42:24.201Z,989.02
2022-11-01T04:43:24.184Z,989.10
2022-11-01T04:44:24.177Z,989.04
2022-11-01T04:45:24.164Z,989.01
2022-11-01T04:46:24.160Z,989.08
2022-11-01T04:47:24.224Z,989.09
2022-11-01T04:48:24.126Z,989.11
2022-11-01T04:49:24.126Z,989.01
2022-11-01T04:50:24.124Z,989.12
2022-11-01T04:51:24.204Z,989.07
2022-11-01T04:52:24.187Z,989.08
2022-11-01T04:53:24.117Z,989.18
2022-11-01T04:54:24.099Z,989.16
2022-11-01T04:55:24.147Z,989.14
2022-11-01T04:56:24.081Z,989.09
2022-11-01T04:57:24.244Z,989.07
2022-11-01T04:58:24.082Z,989.09
2022-11-01T04:59:24.074Z,989.07
2022-11-01T05:00:24.061Z,989.06
2022-11-01T05:01:24.135Z,989.15
2022-11-01T05:02:24.067Z,989.11
2022-11-01T05:03:24.160Z,989.20
2022-11-01T05:04:24.041Z,989.18
2022-11-01T05:05:24.023Z,989.18
2022-11-01T05:06:24.023Z,989.17
2022-11-01T05:07:24.029Z,989.18
2022-11-01T05:08:24.040Z,989.25
2022-11-01T05:09:24.005Z,989.14
2022-11-01T05:10:23.985Z,989.19
2022-11-01T05:11:23.984Z,989.14
2022-11-01T05:12:23.984Z,989.19
2022-11-01T05:13:23.979Z,989.24
2022-11-01T05:14:24.014Z,989.20
2022-11-01T05:15:23.972Z,989.12
2022-11-01T05:16:23.962Z,989.21
2022-11-01T05:17:23.960Z,989.18
2022-11-01T05:18:23.952Z,989.24
2022-11-01T05:19:23.956Z,989.28
2022-11-01T05:20:23.951Z,989.24
2022-11-01T05:21:23.939Z,989.27
2022-11-01T05:22:23.914Z,989.24
2022-11-01T05:23:23.902Z,989.29
2022-11-01T05:24:23.905Z,989.36
2022-11-01T05:25:24.038Z,989.35
2022-11-01T05:26:23.896Z,989.40
2022-11-01T05:27:23.902Z,989.40
2022-11-01T05:28:23.868Z,989.41
2022-11-01T05:29:32.648Z,989.44
2022-11-01T05:30:25.971Z,989.43
2022-11-01T05:31:23.866Z,989.42
2022-11-01T05:32:23.832Z,989.39
2022-11-01T05:33:23.842Z,989.40
2022-11-01T05:34:23.847Z,989.38
2022-11-01T05:35:23.920Z,989.36
2022-11-01T05:36:23.859Z,989.29
2022-11-01T05:37:27.971Z,989.42
2022-11-01T05:38:24.801Z,989.32
2022-11-01T05:39:23.797Z,989.39
2022-11-01T05:40:23.814Z,989.36
2022-11-01T05:41:23.893Z,989.45
2022-11-01T05:42:23.837Z,989.36
2022-11-01T05:43:23.807Z,989.36
2022-11-01T05:44:23.764Z,989.38
2022-11-01T05:45:23.781Z,989.35
2022-11-01T05:46:23.762Z,989.30
2022-11-01T05:47:23.878Z,989.25
2022-11-01T05:48:23.723Z,989.33
2022-11-01T05:49:23.741Z,989.35
2022-11-01T05:50:23.723Z,989.34
2022-11-01T05:51:23.792Z,989.33
2022-11-01T05:52:23.828Z,989.29
2022-11-01T05:53:23.768Z,989.37
2022-11-01T05:54:23.712Z,989.31
2022-11-01T05:55:23.710Z,989.34
2022-11-01T05:56:23.711Z,989.34
2022-11-01T05:57:23.703Z,989.35
2022-11-01T05:58:27.928Z,989.36
2022-11-01T05:59:24.665Z,989.37
2022-11-01T06:00:23.667Z,989.38
2022-11-01T06:01:23.700Z,989.44
2022-11-01T06:02:23.724Z,989.43
2022-11-01T06:03:23.770Z,989.45
2022-11-01T06:04:23.633Z,989.45
2022-11-01T06:05:23.643Z,989.56
2022-11-01T06:06:23.645Z,989.45
2022-11-01T06:07:23.628Z,989.49
2022-11-01T06:08:23.623Z,989.46
2022-11-01T06:09:23.643Z,989.55
2022-11-01T06:10:23.618Z,989.42
2022-11-01T06:11:23.616Z,989.32
2022-11-01T06:12:23.581Z,989.41
2022-11-01T06:13:23.589Z,989.42
2022-11-01T06:14:23.642Z,989.40
2022-11-01T06:15:23.590Z,989.35
2022-11-01T06:16:23.566Z,989.32
2022-11-01T06:17:23.574Z,989.37
2022-11-01T06:18:23.553Z,989.28
2022-11-01T06:19:23.549Z,989.29
2022-11-01T06:20:23.665Z,989.27
2022-11-01T06:21:27.580Z,989.26
2022-11-01T06:22:24.528Z,989.27
2022-11-01T06:23:23.516Z,989.31
2022-11-01T06:24:23.514Z,989.28
2022-11-01T06:25:23.622Z,989.27
2022-11-01T06:26:23.516Z,989.34
2022-11-01T06:27:23.501Z,989.33
2022-11-01T06:28:23.486Z,989.36
2022-11-01T06:29:23.491Z,989.30
2022-11-01T06:30:23.496Z,989.32
2022-11-01T06:31:23.594Z,989.33
2022-11-01T06:32:23.462Z,989.22
2022-11-01T06:33:23.458Z,989.23
2022-11-01T06:34:23.478Z,989.20
2022-11-01T06:35:23.493Z,989.20
2022-11-01T06:36:23.463Z,989.22
2022-11-01T06:37:23.450Z,989.21
2022-11-01T06:38:23.449Z,989.22
2022-11-01T06:39:23.440Z,989.22
2022-11-01T06:40:23.419Z,989.25
2022-11-01T06:41:23.430Z,989.29
2022-11-01T06:42:23.494Z,989.27
2022-11-01T06:43:23.397Z,989.41
2022-11-01T06:44:23.394Z,989.41
2022-11-01T06:45:23.391Z,989.42
2022-11-01T06:46:23.400Z,989.58
2022-11-01T06:47:23.479Z,989.51
2022-11-01T06:48:23.455Z,989.58
2022-11-01T06:49:23.365Z,989.58
2022-11-01T06:50:23.432Z,989.58
2022-11-01T06:51:24.405Z,989.61
2022-11-01T06:52:23.349Z,989.63
2022-11-01T06:53:23.495Z,989.60
2022-11-01T06:54:23.329Z,989.64
2022-11-01T06:55:24.352Z,989.70
2022-11-01T06:56:23.343Z,989.80
2022-11-01T06:57:23.328Z,989.76
2022-11-01T06:58:23.354Z,989.77
2022-11-01T06:59:23.305Z,989.84
2022-11-01T07:00:23.308Z,989.87
2022-11-01T07:01:23.353Z,989.93
2022-11-01T07:02:28.500Z,989.84
2022-11-01T07:03:25.319Z,989.80
2022-11-01T07:04:23.269Z,989.80
2022-11-01T07:05:23.301Z,989.85
2022-11-01T07:06:23.266Z,989.86
2022-11-01T07:07:23.266Z,989.86
2022-11-01T07:08:23.254Z,989.97
2022-11-01T07:09:23.360Z,989.92
2022-11-01T07:10:23.248Z,989.93
2022-11-01T07:11:27.442Z,989.98
2022-11-01T07:12:24.227Z,989.97
2022-11-01T07:13:23.223Z,989.92
2022-11-01T07:14:23.249Z,989.99
2022-11-01T07:15:23.206Z,990.02
2022-11-01T07:16:23.204Z,990.01
2022-11-01T07:17:23.222Z,990.00
2022-11-01T07:18:23.207Z,989.96
2022-11-01T07:19:23.183Z,989.96
2022-11-01T07:20:23.213Z,990.01
2022-11-01T07:21:23.175Z,990.12
2022-11-01T07:22:23.154Z,990.18
2022-11-01T07:23:23.155Z,990.11
2022-11-01T07:24:23.155Z,990.21
2022-11-01T07:25:23.275Z,990.18
2022-11-01T07:26:23.146Z,990.25
2022-11-01T07:27:23.161Z,990.29
2022-11-01T07:28:23.116Z,990.17
2022-11-01T07:29:23.143Z,990.23
2022-11-01T07:30:23.131Z,990.22
2022-11-01T07:31:23.295Z,990.21
2022-11-01T07:32:23.103Z,990.27
2022-11-01T07:33:23.126Z,990.27
2022-11-01T07:34:23.111Z,990.27
2022-11-01T07:35:23.090Z,990.24
2022-11-01T07:36:23.134Z,990.24
2022-11-01T07:37:23.134Z,990.26
2022-11-01T07:38:23.062Z,990.23
2022-11-01T07:39:23.062Z,990.27
2022-11-01T07:40:23.044Z,990.30
2022-11-01T07:41:23.063Z,990.31
2022-11-01T07:42:23.184Z,990.32
2022-11-01T07:43:23.045Z,990.31
2022-11-01T07:44:23.041Z,990.37
2022-11-01T07:45:23.029Z,990.42
2022-11-01T07:46:23.002Z,990.35
2022-11-01T07:47:23.046Z,990.44
2022-11-01T07:48:23.001Z,990.43
2022-11-01T07:49:23.007Z,990.41
2022-11-01T07:50:23.005Z,990.40
2022-11-01T07:51:22.994Z,990.43
2022-11-01T07:52:22.993Z,990.44
2022-11-01T07:53:23.002Z,990.49
2022-11-01T07:54:23.012Z,990.54
2022-11-01T07:55:22.965Z,990.49
2022-11-01T07:56:22.975Z,990.48
2022-11-01T07:57:22.976Z,990.49
2022-11-01T07:58:23.056Z,990.43
2022-11-01T07:59:22.953Z,990.47
2022-11-01T08:00:23.010Z,990.46
2022-11-01T08:01:23.064Z,990.49
2022-11-01T08:02:23.063Z,990.58
2022-11-01T08:03:22.925Z,990.60
2022-11-01T08:04:23.060Z,990.48
2022-11-01T08:05:22.896Z,990.47
2022-11-01T08:07:22.912Z,990.44
2022-11-01T08:08:22.893Z,990.47
2022-11-01T08:09:22.959Z,990.50
2022-11-01T08:10:22.886Z,990.53
2022-11-01T08:11:22.859Z,990.48
2022-11-01T08:12:22.869Z,990.49
2022-11-01T08:13:22.863Z,990.55
2022-11-01T08:14:22.907Z,990.55
2022-11-01T08:15:22.946Z,990.55
2022-11-01T08:16:22.844Z,990.59
2022-11-01T08:17:22.833Z,990.61
2022-11-01T08:18:22.836Z,990.63
2022-11-01T08:19:22.814Z,990.59
2022-11-01T08:20:22.855Z,990.57
2022-11-01T08:21:22.796Z,990.63
2022-11-01T08:22:22.798Z,990.61
2022-11-01T08:23:22.794Z,990.56
2022-11-01T08:24:22.800Z,990.56
2022-11-01T08:25:22.787Z,990.61
2022-11-01T08:26:22.808Z,990.63
2022-11-01T08:27:22.784Z,990.67
2022-11-01T08:28:22.772Z,990.63
2022-11-01T08:29:22.751Z,990.62
2022-11-01T08:30:22.748Z,990.61
2022-11-01T08:31:22.777Z,990.53
2022-11-01T08:32:22.755Z,990.66
2022-11-01T08:33:22.739Z,990.59
2022-11-01T08:34:22.719Z,990.69
2022-11-01T08:35:22.708Z,990.65
2022-11-01T08:36:22.711Z,990.64
2022-11-01T08:37:22.742Z,990.69
2022-11-01T08:38:22.705Z,990.61
2022-11-01T08:39:22.704Z,990.63
2022-11-01T08:40:22.682Z,990.67
2022-11-01T08:41:22.683Z,990.74
2022-11-01T08:42:22.795Z,990.64
2022-11-01T08:43:22.676Z,990.68
2022-11-01T08:44:22.669Z,990.73
2022-11-01T08:45:22.671Z,990.70
2022-11-01T08:46:22.669Z,990.74
2022-11-01T08:47:22.647Z,990.68
2022-11-01T08:48:22.760Z,990.69
2022-11-01T08:49:22.644Z,990.76
2022-11-01T08:50:22.632Z,990.78
2022-11-01T08:51:22.618Z,990.81
2022-11-01T08:52:22.620Z,990.85
2022-11-01T08:53:22.653Z,990.91
2022-11-01T08:54:22.599Z,990.91
2022-11-01T08:55:22.654Z,990.79
2022-11-01T08:56:22.594Z,990.80
2022-11-01T08:57:22.588Z,990.81
2022-11-01T08:58:22.590Z,990.79
2022-11-01T08:59:22.609Z,990.82
2022-11-01T09:00:22.585Z,990.89
2022-11-01T09:01:22.698Z,990.90
2022-11-01T09:02:22.678Z,990.86
2022-11-01T09:03:22.562Z,990.84
2022-11-01T09:04:22.729Z,990.77
2022-11-01T09:05:22.544Z,990.79
2022-11-01T09:06:22.552Z,990.82
2022-11-01T09:07:22.543Z,990.85
2022-11-01T09:08:22.537Z,990.82
2022-11-01T09:09:22.531Z,990.83
2022-11-01T09:10:22.663Z,990.79
2022-11-01T09:11:22.510Z,990.87
2022-11-01T09:12:24.794Z,990.79
2022-11-01T09:13:23.500Z,990.79
2022-11-01T09:14:22.488Z,990.77
2022-11-01T09:15:22.585Z,990.77
2022-11-01T09:16:22.484Z,990.79
2022-11-01T09:17:22.496Z,990.88
2022-11-01T09:18:22.475Z,990.86
2022-11-01T09:19:22.465Z,990.85
2022-11-01T09:20:22.569Z,990.94
2022-11-01T09:21:22.485Z,990.89
2022-11-01T09:22:22.447Z,990.98
2022-11-01T09:23:22.431Z,990.97
2022-11-01T09:24:22.445Z,990.98
2022-11-01T09:25:22.413Z,990.88
2022-11-01T09:26:22.453Z,990.86
2022-11-01T09:27:22.411Z,990.91
2022-11-01T09:28:22.407Z,990.96
2022-11-01T09:29:22.473Z,990.90
2022-11-01T09:30:23.443Z,990.88
2022-11-01T09:31:22.415Z,990.91
2022-11-01T09:32:22.504Z,990.90
2022-11-01T09:33:22.413Z,990.90
2022-11-01T09:34:22.385Z,990.83
2022-11-01T09:35:22.366Z,990.97
2022-11-01T09:36:22.382Z,990.93
2022-11-01T09:37:22.390Z,991.04
2022-11-01T09:38:22.371Z,991.11
2022-11-01T09:39:22.350Z,991.00
2022-11-01T09:40:22.441Z,991.05
2022-11-01T09:41:22.335Z,991.02
2022-11-01T09:42:22.342Z,991.03
2022-11-01T09:43:22.371Z,990.92
2022-11-01T09:44:22.331Z,990.98
2022-11-01T09:45:22.317Z,990.97
2022-11-01T09:47:23.299Z,991.01
2022-11-01T09:48:22.336Z,991.03
2022-11-01T09:49:22.274Z,991.02
2022-11-01T09:50:22.276Z,990.90
2022-11-01T09:51:22.280Z,990.95
2022-11-01T09:52:22.265Z,991.05
2022-11-01T09:53:22.256Z,991.00
2022-11-01T09:54:22.394Z,991.04
2022-11-01T09:55:22.250Z,990.92
2022-11-01T09:56:22.251Z,990.95
2022-11-01T09:57:22.216Z,991.01
2022-11-01T09:58:22.232Z,991.07
2022-11-01T09:59:22.269Z,991.04
2022-11-01T10:00:22.211Z,991.06
2022-11-01T10:01:22.307Z,991.09
2022-11-01T10:02:23.238Z,991.07
2022-11-01T10:03:22.201Z,991.06
2022-11-01T10:04:22.201Z,991.09
2022-11-01T10:05:22.215Z,991.09
2022-11-01T10:06:22.188Z,990.98
2022-11-01T10:07:22.177Z,991.15
2022-11-01T10:08:22.166Z,991.18
2022-11-01T10:09:22.179Z,991.18
2022-11-01T10:10:22.181Z,991.11
2022-11-01T10:11:22.153Z,991.13
2022-11-01T10:12:22.163Z,991.18
2022-11-01T10:13:22.142Z,991.23
2022-11-01T10:14:22.135Z,991.22
2022-11-01T10:15:22.127Z,991.21
2022-11-01T10:16:23.237Z,991.28
2022-11-01T10:17:22.126Z,991.30
2022-11-01T10:18:22.100Z,991.23
2022-11-01T10:19:22.114Z,991.27
2022-11-01T10:20:22.120Z,991.24
2022-11-01T10:21:23.536Z,991.20
2022-11-01T10:22:22.103Z,991.26
2022-11-01T10:23:22.079Z,991.15
2022-11-01T10:24:56.238Z,991.21
2022-11-01T10:25:22.106Z,991.21
2022-11-01T10:26:22.798Z,991.25
2022-11-01T10:27:22.104Z,991.21
2022-11-01T10:28:22.056Z,991.32
2022-11-01T10:29:22.064Z,991.29
2022-11-01T10:30:22.044Z,991.35
2022-11-01T10:31:22.045Z,991.24
2022-11-01T10:32:23.091Z,991.32
2022-11-01T10:33:22.051Z,991.29
2022-11-01T10:34:22.048Z,991.29
2022-11-01T10:35:22.058Z,991.31
2022-11-01T10:36:22.161Z,991.28
2022-11-01T10:37:22.033Z,991.28
2022-11-01T10:38:26.734Z,991.26
2022-11-01T10:40:24.007Z,991.24
2022-11-01T10:41:22.008Z,991.33
2022-11-01T10:42:22.004Z,991.30
2022-11-01T10:43:22.120Z,991.41
2022-11-01T10:44:22.004Z,991.41
2022-11-01T10:45:21.969Z,991.37
2022-11-01T10:46:21.975Z,991.41
2022-11-01T10:47:22.015Z,991.36
2022-11-01T10:48:21.966Z,991.33
2022-11-01T10:49:24.395Z,991.44
2022-11-01T10:50:21.960Z,991.28
2022-11-01T10:51:27.530Z,991.31
2022-11-01T10:52:22.943Z,991.30
2022-11-01T10:53:21.936Z,991.32
2022-11-01T10:54:22.088Z,991.30
2022-11-01T10:55:21.931Z,991.32
2022-11-01T10:56:24.012Z,991.31
2022-11-01T10:57:21.925Z,991.39
2022-11-01T10:58:21.950Z,991.34
2022-11-01T10:59:21.913Z,991.34
2022-11-01T11:00:21.934Z,991.29
2022-11-01T11:01:22.140Z,991.37
2022-11-01T11:02:21.924Z,991.36
2022-11-01T11:03:21.869Z,991.30
2022-11-01T11:04:21.883Z,991.23
2022-11-01T11:05:21.915Z,991.35
2022-11-01T11:06:21.878Z,991.26
2022-11-01T11:07:24.238Z,991.19
2022-11-01T11:08:21.865Z,991.20
2022-11-01T11:09:21.825Z,991.27
2022-11-01T11:10:24.038Z,991.27
2022-11-01T11:11:21.867Z,991.21
2022-11-01T11:12:21.842Z,991.25
2022-11-01T11:13:21.821Z,991.30
2022-11-01T11:14:21.813Z,991.35
2022-11-01T11:15:21.784Z,991.27
2022-11-01T11:16:21.904Z,991.37
2022-11-01T11:17:21.807Z,991.27
2022-11-01T11:18:21.790Z,991.23
2022-11-01T11:19:21.893Z,991.24
2022-11-01T11:20:21.840Z,991.32
2022-11-01T11:21:25.652Z,991.37
2022-11-01T11:22:23.786Z,991.32
2022-11-01T11:23:21.771Z,991.32
2022-11-01T11:24:21.758Z,991.35
2022-11-01T11:25:21.780Z,991.43
2022-11-01T11:26:21.745Z,991.39
2022-11-01T11:27:21.746Z,991.37
2022-11-01T11:28:21.810Z,991.26
2022-11-01T11:29:21.746Z,991.37
2022-11-01T11:30:21.717Z,991.51
2022-11-01T11:31:21.759Z,991.33
2022-11-01T11:32:21.724Z,991.31
2022-11-01T11:33:21.955Z,991.39
2022-11-01T11:34:22.688Z,991.30
2022-11-01T11:35:21.683Z,991.34
2022-11-01T11:36:21.690Z,991.28
2022-11-01T11:37:21.704Z,991.25
2022-11-01T11:38:21.826Z,991.23
2022-11-01T11:39:21.667Z,991.26
2022-11-01T11:40:21.649Z,991.13
2022-11-01T11:41:21.668Z,991.21
2022-11-01T11:42:21.694Z,991.34
2022-11-01T11:43:22.325Z,991.33
2022-11-01T11:44:21.679Z,991.39
2022-11-01T11:45:21.680Z,991.40
2022-11-01T11:46:21.632Z,991.34
2022-11-01T11:47:21.791Z,991.41
2022-11-01T11:48:21.604Z,991.37
2022-11-01T11:49:21.712Z,991.40
2022-11-01T11:50:21.584Z,991.32
2022-11-01T11:51:21.583Z,991.41
2022-11-01T11:52:24.371Z,991.36
2022-11-01T11:53:22.609Z,991.25
2022-11-01T11:54:21.600Z,991.31
2022-11-01T11:55:21.570Z,991.31
2022-11-01T11:56:21.600Z,991.29
2022-11-01T11:57:21.583Z,991.36
2022-11-01T11:58:21.576Z,991.33
2022-11-01T11:59:21.555Z,991.38
2022-11-01T12:00:21.651Z,991.36
2022-11-01T12:01:21.681Z,991.39
2022-11-01T12:02:21.568Z,991.55
2022-11-01T12:03:21.518Z,991.52
2022-11-01T12:04:21.513Z,991.55
2022-11-01T12:05:21.536Z,991.55
2022-11-01T12:06:21.515Z,991.39
2022-11-01T12:07:21.493Z,991.50
2022-11-01T12:08:21.508Z,991.51
2022-11-01T12:09:22.975Z,991.60
2022-11-01T12:10:21.482Z,991.52
2022-11-01T12:11:21.632Z,991.55
2022-11-01T12:12:21.474Z,991.56
2022-11-01T12:13:21.440Z,991.50
2022-11-01T12:14:21.452Z,991.47
2022-11-01T12:15:21.442Z,991.36
2022-11-01T12:16:21.599Z,991.46
2022-11-01T12:17:21.438Z,991.33
2022-11-01T12:18:21.432Z,991.36
2022-11-01T12:19:21.419Z,991.43
2022-11-01T12:20:21.416Z,991.43
2022-11-01T12:21:21.428Z,991.48
2022-11-01T12:22:21.537Z,991.45
2022-11-01T12:23:22.394Z,991.43
2022-11-01T12:24:21.407Z,991.47
2022-11-01T12:25:21.386Z,991.50
2022-11-01T12:26:21.391Z,991.53
2022-11-01T12:27:21.488Z,991.48
2022-11-01T12:28:21.416Z,991.57
2022-11-01T12:29:21.408Z,991.48
2022-11-01T12:30:21.361Z,991.54
2022-11-01T12:31:21.473Z,991.42
2022-11-01T12:32:21.351Z,991.49